Time;durP1;ratioP1;P1;durP2;ratioP2;P2;SDS_P1;SDS_P2;PMS_P1;PMS_P2;Temp;Humidity;BMP_temperature;BMP_pressure;BME280_temperature;BME280_humidity;BME280_pressure;Samples;Min_cycle;Max_cycle;Signal;HPM_P1;HPM_P2
2021/05/31 08:15:52;;;;;;;1.30;0.90;;;;;;;17.91;62.06;100031.96;1710685;82;21756;-41
2021/05/31 08:18:19;;;;;;;1.45;0.95;;;;;;;17.88;62.67;100027.25;1679119;84;21158;-40
2021/05/31 08:20:47;;;;;;;1.10;0.80;;;;;;;17.85;62.68;100031.31;1653681;84;21578;-36
2021/05/31 08:23:14;;;;;;;1.47;0.82;;;;;;;17.83;62.86;100037.13;1677646;84;21176;-39
2021/05/31 08:25:42;;;;;;;2.17;1.10;;;;;;;17.78;63.12;100049.17;1675282;84;21669;-36
2021/05/31 08:28:10;;;;;;;3.25;0.80;;;;;;;17.77;63.11;100042.16;1677501;84;21069;-35
2021/05/31 08:30:37;;;;;;;3.98;0.95;;;;;;;17.85;63.18;100046.73;1670158;84;21881;-41
2021/05/31 08:33:06;;;;;;;2.65;0.70;;;;;;;17.90;62.86;100046.12;1679521;84;21151;-36
2021/05/31 08:35:39;;;;;;;0.90;0.90;;;;;;;17.93;62.54;100043.38;1684794;84;21016;-41
2021/05/31 08:38:06;;;;;;;4.33;0.90;;;;;;;17.95;62.21;100045.50;1665634;83;21095;-36
2021/05/31 08:40:33;;;;;;;1.02;0.75;;;;;;;17.99;61.85;100049.78;1646755;85;21571;-36
2021/05/31 08:43:00;;;;;;;5.17;1.00;;;;;;;18.01;62.75;100046.62;1670446;85;21144;-41
2021/05/31 08:45:29;;;;;;;4.95;1.40;;;;;;;18.11;62.42;100049.82;1642071;85;21026;-42
2021/05/31 08:47:57;;;;;;;0.95;0.95;;;;;;;18.17;62.12;100042.98;1686846;84;21468;-36
2021/05/31 08:50:30;;;;;;;0.60;0.60;;;;;;;18.21;60.50;100048.59;1674693;84;21407;-36
2021/05/31 08:52:57;;;;;;;;;;;;;;;18.18;60.47;100046.03;1629095;85;21734;-36
2021/05/31 08:55:26;;;;;;;2.55;1.02;;;;;;;18.15;60.14;100041.29;1609462;87;20166;-37
2021/05/31 08:57:53;;;;;;;1.45;1.05;;;;;;;18.05;60.55;100043.41;1655292;85;21107;-36
2021/05/31 09:00:26;;;;;;;3.62;1.07;;;;;;;18.05;60.14;100040.30;1652327;86;21004;-41
2021/05/31 09:02:56;;;;;;;3.30;1.02;;;;;;;18.10;60.67;100041.48;1628670;86;21129;-36
2021/05/31 09:05:38;;;;;;;1.32;1.22;;;;;;;18.11;60.42;100043.20;1639577;87;21014;-41
2021/05/31 09:08:19;;;;;;;1.72;1.12;;;;;;;18.04;61.54;100042.55;1670427;84;21715;-40
2021/05/31 09:10:53;;;;;;;0.90;0.90;;;;;;;17.90;61.40;100039.50;1675767;84;21050;-35
2021/05/31 09:13:37;;;;;;;2.83;0.80;;;;;;;17.85;61.48;100041.89;1675021;84;21108;-41
2021/05/31 09:16:18;;;;;;;1.37;0.85;;;;;;;17.91;61.63;100039.03;1686154;84;21052;-41
2021/05/31 09:19:00;;;;;;;1.57;1.47;;;;;;;18.01;62.01;100037.81;1643649;85;21114;-41
2021/05/31 09:21:31;;;;;;;0.75;0.65;;;;;;;18.14;61.09;100033.81;1623714;87;21084;-36
2021/05/31 09:24:08;;;;;;;0.90;0.90;;;;;;;18.21;60.64;100027.88;1632499;86;21113;-36
2021/05/31 09:26:56;;;;;;;0.95;0.90;;;;;;;18.21;60.05;100031.38;1632520;86;21152;-40
2021/05/31 09:29:23;;;;;;;0.70;0.70;;;;;;;18.24;60.10;100033.91;1628650;86;21573;-41
2021/05/31 09:32:06;;;;;;;1.62;0.90;;;;;;;18.27;59.49;100036.45;1661857;85;21090;-41
2021/05/31 09:34:34;;;;;;;4.53;0.88;;;;;;;18.12;59.86;100038.77;1619394;86;21067;-36
2021/05/31 09:37:03;;;;;;;0.88;0.88;;;;;;;17.94;58.74;100038.48;1623576;86;21094;-36
2021/05/31 09:39:36;;;;;;;3.00;1.10;;;;;;;17.81;60.29;100040.69;1653425;84;22104;-41
2021/05/31 09:42:11;;;;;;;3.55;0.90;;;;;;;17.81;60.51;100038.50;1659311;84;21520;-35
2021/05/31 09:44:36;;;;;;;1.22;0.88;;;;;;;17.90;59.87;100046.12;1655400;84;21071;-37
2021/05/31 09:47:03;;;;;;;3.02;0.80;;;;;;;17.90;59.49;100040.83;1648192;84;21134;-36
2021/05/31 09:49:30;;;;;;;0.85;0.65;;;;;;;17.92;59.18;100043.44;1650816;85;21379;-37
2021/05/31 09:52:06;;;;;;;3.20;0.93;;;;;;;17.94;59.03;100037.16;1643397;85;21091;-37
2021/05/31 09:54:50;;;;;;;0.70;0.70;;;;;;;17.99;58.57;100037.02;1619394;86;21117;-37
2021/05/31 09:57:31;;;;;;;2.30;0.55;;;;;;;18.08;58.85;100039.33;1646595;86;21067;-42
2021/05/31 10:00:06;;;;;;;0.98;0.90;;;;;;;18.19;58.90;100034.52;1656133;85;21408;-42
2021/05/31 10:05:40;;;;;;;4.70;0.70;;;;;;;18.48;58.23;100031.28;1631990;87;21506;-38
2021/05/31 10:10:43;;;;;;;1.22;0.80;;;;;;;18.80;57.86;100044.71;1646844;86;21027;-42
2021/05/31 10:13:11;;;;;;;1.75;0.72;;;;;;;18.82;56.70;100040.20;1645333;87;21124;-42
2021/05/31 10:15:42;;;;;;;0.57;0.57;;;;;;;18.74;57.09;100040.50;1607839;88;21082;-42
2021/05/31 10:18:12;;;;;;;0.72;0.60;;;;;;;18.67;57.25;100036.77;1664263;85;21383;-41
2021/05/31 10:20:39;;;;;;;0.75;0.75;;;;;;;18.62;56.67;100034.31;1661407;86;21084;-41
2021/05/31 10:23:07;;;;;;;4.47;0.60;;;;;;;18.55;57.10;100038.97;1644785;85;21133;-37
2021/05/31 10:25:40;;;;;;;0.80;0.80;;;;;;;18.53;56.63;100034.17;1677228;85;21542;-37
2021/05/31 10:28:30;;;;;;;1.00;0.90;;;;;;;18.45;56.39;100039.36;1678039;85;21087;-37
2021/05/31 10:31:04;;;;;;;1.42;0.80;;;;;;;18.48;57.34;100036.13;1647185;87;21025;-42
2021/05/31 10:33:37;;;;;;;2.75;0.62;;;;;;;18.73;56.95;100032.59;1647249;85;21160;-39
2021/05/31 10:36:19;;;;;;;2.60;0.70;;;;;;;19.05;55.90;100026.93;1672375;85;21044;-42
2021/05/31 10:38:47;;;;;;;1.72;1.02;;;;;;;19.13;54.69;100016.02;1675302;84;21429;-37
2021/05/31 10:41:22;;;;;;;2.40;1.10;;;;;;;19.26;55.01;100017.74;1640901;86;21031;-42
2021/05/31 10:43:52;;;;;;;1.20;0.82;;;;;;;19.37;55.17;100012.88;1632305;88;21182;-43
2021/05/31 10:46:27;;;;;;;0.47;0.47;;;;;;;19.33;55.05;100019.22;1659612;84;21069;-37
2021/05/31 10:48:54;;;;;;;15.18;0.98;;;;;;;19.47;54.59;100012.88;1665500;86;21200;-37
2021/05/31 10:51:26;;;;;;;0.60;0.60;;;;;;;19.71;53.79;100011.02;1634708;87;21615;-36
2021/05/31 10:53:53;;;;;;;0.80;0.80;;;;;;;19.88;53.18;100012.97;1675329;85;21147;-37
2021/05/31 10:56:28;;;;;;;1.85;0.80;;;;;;;19.91;53.52;100009.73;1674709;86;21099;-42
2021/05/31 11:19:40;;;;;;;3.98;1.22;;;;;;;19.99;53.54;99996.58;1674177;85;21154;-43
2021/05/31 11:22:28;;;;;;;1.00;0.90;;;;;;;19.78;54.65;100001.04;1743779;82;21114;-42
2021/05/31 11:25:01;;;;;;;2.52;0.90;;;;;;;19.67;54.57;99997.50;1743779;81;21086;-38
2021/05/31 11:27:31;;;;;;;2.42;0.85;;;;;;;19.56;53.64;99999.70;1743773;82;21683;-37
2021/05/31 11:29:59;;;;;;;4.92;1.00;;;;;;;19.51;52.93;100001.69;1743776;82;21090;-37
2021/05/31 11:32:27;;;;;;;2.17;0.90;;;;;;;19.37;53.21;100000.47;1743848;82;21652;-37
2021/05/31 11:35:05;;;;;;;2.47;1.07;;;;;;;19.27;53.63;99999.58;1743722;82;21656;-37
2021/05/31 11:37:33;;;;;;;3.22;1.25;;;;;;;19.24;54.33;99988.61;1743741;82;21118;-37
2021/05/31 11:40:03;;;;;;;1.02;0.80;;;;;;;19.32;54.31;99983.88;1743800;82;21129;-37
2021/05/31 11:42:30;;;;;;;1.47;0.90;;;;;;;19.37;53.60;99985.88;1743914;82;21094;-42
2021/05/31 11:45:02;;;;;;;0.82;0.82;;;;;;;19.39;53.94;99990.65;1744415;82;21180;-42
2021/05/31 11:47:29;;;;;;;1.87;1.12;;;;;;;19.46;54.82;99983.30;1731072;82;21604;-42
2021/05/31 12:00:42;;;;;;;1.60;0.93;;;;;;;19.63;53.75;99988.80;1708930;83;21111;-37
2021/05/31 12:03:19;;;;;;;1.10;1.00;;;;;;;19.60;53.59;99979.66;1631456;86;21154;-37
2021/05/31 12:05:47;;;;;;;5.95;1.30;;;;;;;19.54;53.68;99977.23;1655366;86;21460;-37
2021/05/31 12:08:15;;;;;;;4.87;0.90;;;;;;;19.52;53.06;99979.06;1679428;85;21163;-37
2021/05/31 12:10:45;;;;;;;1.62;0.82;;;;;;;19.43;52.81;99988.75;1684619;85;21150;-42
2021/05/31 12:13:13;;;;;;;3.15;1.20;;;;;;;19.17;53.62;99983.16;1649875;87;21147;-41
2021/05/31 12:15:43;;;;;;;1.67;1.10;;;;;;;19.02;55.08;99984.66;1683005;85;21138;-42
2021/05/31 12:18:16;;;;;;;1.50;1.40;;;;;;;19.04;54.06;99977.95;1649706;87;21148;-36
2021/05/31 12:20:45;;;;;;;0.90;0.90;;;;;;;19.09;54.06;99978.64;1649750;87;21128;-43
2021/05/31 12:23:21;;;;;;;1.05;1.00;;;;;;;19.16;54.18;99976.14;1683166;85;21150;-37
2021/05/31 12:25:48;;;;;;;4.05;0.93;;;;;;;19.14;54.26;99975.34;1649827;87;21112;-37
2021/05/31 12:28:18;;;;;;;1.20;1.10;;;;;;;19.10;54.95;99971.08;1683065;85;21123;-37
2021/05/31 12:30:50;;;;;;;1.10;1.00;;;;;;;19.07;54.70;99973.38;1683035;83;21138;-42
2021/05/31 12:33:17;;;;;;;3.70;1.40;;;;;;;19.04;54.99;99969.53;1649897;87;21113;-37
2021/05/31 12:35:45;;;;;;;1.80;1.10;;;;;;;19.01;55.05;99966.13;1682807;85;21151;-37
2021/05/31 12:38:12;;;;;;;2.85;1.45;;;;;;;18.91;55.63;99975.39;1649725;87;21586;-36
2021/05/31 12:40:41;;;;;;;1.17;0.95;;;;;;;18.86;55.83;99972.92;1682877;85;21094;-43
2021/05/31 12:43:08;;;;;;;1.07;0.98;;;;;;;18.91;54.94;99969.63;1682945;85;21095;-43
2021/05/31 12:45:47;;;;;;;1.87;1.20;;;;;;;18.91;55.53;99972.75;1649703;87;21647;-37
2021/05/31 12:48:19;;;;;;;1.65;1.35;;;;;;;18.88;55.42;99967.09;1683208;85;21136;-37
2021/05/31 12:50:57;;;;;;;4.28;1.02;;;;;;;18.87;55.46;99966.69;1683029;85;21091;-42
2021/05/31 12:53:28;;;;;;;1.10;1.10;;;;;;;18.86;56.00;99958.34;1683002;85;21677;-43
2021/05/31 12:56:02;;;;;;;1.57;1.20;;;;;;;18.96;55.07;99948.22;1649860;86;21112;-37
2021/05/31 12:58:29;;;;;;;1.50;1.40;;;;;;;19.00;55.05;99955.13;1683067;85;21681;-36
2021/05/31 13:00:57;;;;;;;1.70;1.50;;;;;;;18.95;55.49;99942.52;1663992;84;21182;-37
2021/05/31 13:03:32;;;;;;;3.37;1.30;;;;;;;18.86;56.30;99949.06;1632246;87;21146;-37
2021/05/31 13:06:00;;;;;;;1.75;1.20;;;;;;;18.75;55.23;99948.63;1631930;86;21082;-36
2021/05/31 13:08:40;;;;;;;3.08;1.37;;;;;;;18.61;54.67;99946.45;1632138;87;21158;-37
2021/05/31 13:11:07;;;;;;;4.92;1.17;;;;;;;18.49;54.84;99953.55;1632170;88;21681;-37
2021/05/31 13:13:37;;;;;;;1.00;1.00;;;;;;;18.36;55.29;99947.85;1632243;87;21147;-42
2021/05/31 13:16:09;;;;;;;4.22;1.17;;;;;;;18.28;56.05;99956.55;1632236;87;21200;-37
2021/05/31 13:18:39;;;;;;;2.70;1.72;;;;;;;18.26;55.22;99948.67;1632203;87;21171;-42
2021/05/31 13:21:16;;;;;;;2.47;0.95;;;;;;;18.40;54.86;99945.50;1631748;87;21118;-39
2021/05/31 13:23:45;;;;;;;2.00;1.20;;;;;;;18.57;53.86;99945.73;1631406;87;21662;-42
2021/05/31 13:26:19;;;;;;;3.02;1.05;;;;;;;18.72;53.67;99941.64;1631880;87;21126;-43
2021/05/31 13:28:48;;;;;;;1.80;1.15;;;;;;;18.83;55.01;99942.55;1632075;87;21110;-37
2021/05/31 13:31:18;;;;;;;4.20;1.62;;;;;;;18.83;54.61;99945.20;1631774;88;21122;-42
2021/05/31 13:33:47;;;;;;;1.20;1.10;;;;;;;18.66;54.40;99934.36;1630539;87;21123;-37
2021/05/31 13:36:19;;;;;;;2.00;1.20;;;;;;;18.52;55.28;99938.41;1630869;88;21610;-43
2021/05/31 13:38:47;;;;;;;1.07;0.90;;;;;;;18.47;56.00;99936.40;1632331;87;21131;-42
2021/05/31 13:41:14;;;;;;;1.05;1.05;;;;;;;18.47;55.55;99937.72;1632121;88;21155;-42
2021/05/31 13:43:53;;;;;;;1.22;1.10;;;;;;;18.45;55.56;99939.58;1632064;87;21142;-37
2021/05/31 13:46:20;;;;;;;1.70;1.02;;;;;;;18.47;55.13;99938.19;1632332;87;21075;-37
2021/05/31 13:48:47;;;;;;;0.90;0.90;;;;;;;18.44;54.95;99938.28;1632129;87;21116;-37
2021/05/31 13:51:14;;;;;;;2.85;1.00;;;;;;;18.37;55.06;99926.20;1631989;88;21143;-43
2021/05/31 13:53:41;;;;;;;7.83;1.40;;;;;;;18.30;54.71;99933.05;1631974;87;21665;-37
2021/05/31 13:56:08;;;;;;;4.47;1.17;;;;;;;18.27;54.69;99926.57;1631945;87;21110;-37
2021/05/31 13:58:35;;;;;;;3.70;1.37;;;;;;;18.31;54.80;99931.27;1632250;87;21637;-38
2021/05/31 14:01:01;;;;;;;2.22;1.25;;;;;;;18.43;54.00;99937.89;1632198;85;21158;-38
2021/05/31 14:03:28;;;;;;;1.12;0.95;;;;;;;18.55;53.85;99938.31;1632305;88;21139;-42
2021/05/31 14:05:55;;;;;;;1.40;1.30;;;;;;;18.62;53.30;99932.31;1632418;87;21190;-38
2021/05/31 14:08:22;;;;;;;2.05;1.12;;;;;;;18.64;54.05;99934.42;1632281;87;21111;-37
2021/05/31 14:10:50;;;;;;;2.52;1.20;;;;;;;18.61;54.06;99942.48;1632260;87;21091;-42
2021/05/31 14:13:17;;;;;;;2.05;1.77;;;;;;;18.55;52.41;99946.26;1632296;88;21107;-43
2021/05/31 14:15:44;;;;;;;4.12;1.10;;;;;;;18.46;52.98;99941.76;1632345;88;21123;-35
2021/05/31 14:18:11;;;;;;;1.95;1.10;;;;;;;18.37;53.78;99948.25;1632270;87;21142;-37
2021/05/31 14:20:38;;;;;;;1.07;0.98;;;;;;;18.31;54.30;99944.05;1632255;88;21590;-43
2021/05/31 14:23:05;;;;;;;1.85;1.15;;;;;;;18.20;55.32;99952.84;1632241;88;21442;-38
2021/05/31 14:25:33;;;;;;;4.67;1.00;;;;;;;18.18;54.63;99949.40;1632248;88;21079;-43
2021/05/31 14:28:00;;;;;;;1.65;0.90;;;;;;;18.21;54.82;99934.74;1632302;88;21110;-42
2021/05/31 14:30:28;;;;;;;3.02;1.10;;;;;;;18.26;54.63;99951.33;1632399;88;21094;-37
2021/05/31 14:33:01;;;;;;;1.35;1.07;;;;;;;18.30;54.80;99949.41;1632030;88;21102;-42
2021/05/31 14:35:27;;;;;;;2.15;1.10;;;;;;;18.32;53.63;99947.55;1632134;88;21594;-35
2021/05/31 14:37:55;;;;;;;1.07;0.95;;;;;;;18.30;52.71;99944.11;1631712;86;21468;-38
2021/05/31 14:40:23;;;;;;;1.95;1.00;;;;;;;18.29;52.80;99950.34;1632084;88;21055;-35
2021/05/31 14:42:52;;;;;;;2.65;1.65;;;;;;;18.27;52.46;99950.86;1632111;88;21150;-36
2021/05/31 14:45:19;;;;;;;1.52;1.00;;;;;;;18.16;53.02;99953.90;1632401;88;21116;-36
2021/05/31 14:47:49;;;;;;;1.35;0.90;;;;;;;17.98;52.98;99952.78;1632159;87;21646;-36
2021/05/31 14:50:16;;;;;;;0.90;0.90;;;;;;;17.86;54.18;99956.30;1632294;88;21123;-41
2021/05/31 14:52:45;;;;;;;2.60;1.20;;;;;;;17.77;53.68;99955.71;1632103;86;21142;-42
2021/05/31 14:55:12;;;;;;;2.20;1.27;;;;;;;17.71;53.73;99951.92;1632275;87;21067;-41
2021/05/31 14:57:39;;;;;;;1.00;1.00;;;;;;;17.61;54.66;99948.33;1632092;88;21119;-42
2021/05/31 15:00:13;;;;;;;2.80;1.07;;;;;;;17.54;55.31;99946.34;1632322;88;21638;-36
2021/05/31 15:02:40;;;;;;;0.93;0.90;;;;;;;17.56;55.03;99950.66;1672702;85;21079;-36
2021/05/31 15:05:10;;;;;;;1.37;1.10;;;;;;;17.56;55.09;99955.95;1656868;86;21080;-42
2021/05/31 15:07:37;;;;;;;4.00;0.85;;;;;;;17.55;54.99;99958.66;1692365;85;21158;-42
2021/05/31 15:10:05;;;;;;;1.10;0.98;;;;;;;17.50;54.51;99964.09;1656871;86;21570;-42
2021/05/31 15:12:33;;;;;;;1.45;0.90;;;;;;;17.45;54.58;99959.87;1692485;83;21138;-42
2021/05/31 15:15:03;;;;;;;1.25;0.85;;;;;;;17.41;55.06;99967.06;1656675;86;21164;-41
2021/05/31 15:17:31;;;;;;;0.82;0.78;;;;;;;17.30;55.41;99966.55;1692190;85;21150;-36
2021/05/31 15:19:58;;;;;;;0.88;0.88;;;;;;;17.19;55.45;99973.95;1692358;84;21586;-36
2021/05/31 15:22:26;;;;;;;2.35;0.72;;;;;;;17.08;55.59;99966.36;1656842;85;21663;-36
2021/05/31 15:24:55;;;;;;;0.98;0.75;;;;;;;17.06;55.54;99969.98;1692317;85;21094;-36
2021/05/31 15:27:21;;;;;;;2.17;1.27;;;;;;;16.93;56.13;99974.34;1656621;86;21681;-42
2021/05/31 15:29:48;;;;;;;2.25;0.68;;;;;;;16.86;56.86;99983.80;1692429;85;21464;-41
2021/05/31 15:32:15;;;;;;;1.20;0.80;;;;;;;16.79;56.04;99984.45;1692190;85;21114;-37
2021/05/31 15:34:42;;;;;;;0.80;0.70;;;;;;;16.71;56.61;99989.11;1656906;86;21561;-36
2021/05/31 15:37:11;;;;;;;1.52;0.93;;;;;;;16.65;56.34;99984.84;1692061;85;21121;-36
2021/05/31 15:39:39;;;;;;;1.67;0.70;;;;;;;16.59;56.87;99985.48;1656872;86;21623;-36
2021/05/31 15:42:07;;;;;;;2.60;0.88;;;;;;;16.43;57.32;99991.20;1692198;83;21185;-36
2021/05/31 15:44:34;;;;;;;3.58;0.70;;;;;;;16.30;57.29;99995.10;1656882;86;21093;-42
2021/05/31 15:47:01;;;;;;;0.75;0.75;;;;;;;16.17;57.85;99991.91;1692158;85;21074;-42
2021/05/31 15:49:28;;;;;;;0.75;0.60;;;;;;;16.11;58.14;99996.04;1656908;86;21123;-37
2021/05/31 15:51:55;;;;;;;1.50;0.60;;;;;;;16.09;58.23;99999.64;1692378;83;21070;-41
2021/05/31 15:54:25;;;;;;;2.10;0.60;;;;;;;16.09;58.14;99995.23;1656853;86;21092;-37
2021/05/31 15:56:53;;;;;;;1.75;0.60;;;;;;;16.09;57.84;99991.73;1692323;85;21121;-42
2021/05/31 15:59:20;;;;;;;1.85;0.80;;;;;;;16.05;57.93;99997.53;1692382;85;21141;-42
2021/05/31 16:01:48;;;;;;;1.27;0.50;;;;;;;16.01;58.06;99997.68;1694073;84;21153;-42
2021/05/31 16:04:15;;;;;;;0.82;0.60;;;;;;;15.98;58.36;100006.52;1697883;84;21173;-42
2021/05/31 16:06:42;;;;;;;2.27;0.50;;;;;;;15.93;58.51;100001.81;1697907;83;21101;-42
2021/05/31 16:09:10;;;;;;;0.50;0.35;;;;;;;15.90;58.97;99999.28;1697808;84;21134;-42
2021/05/31 16:11:39;;;;;;;2.42;0.50;;;;;;;15.86;59.20;100001.58;1697630;84;21669;-37
2021/05/31 16:14:09;;;;;;;2.67;0.40;;;;;;;15.85;59.05;100002.48;1697792;84;21434;-41
2021/05/31 16:16:37;;;;;;;1.02;0.42;;;;;;;15.83;58.59;100006.49;1697795;84;21114;-43
2021/05/31 16:19:09;;;;;;;1.10;0.60;;;;;;;15.81;59.08;100006.96;1697802;84;21121;-42
2021/05/31 16:21:33;;;;;;;8.50;0.95;;;;;;;15.75;58.33;100007.58;1697261;84;21142;-41
2021/05/31 16:24:07;;;;;;;2.15;0.60;;;;;;;15.67;58.44;100006.47;1697875;84;21094;-37
2021/05/31 16:26:34;;;;;;;0.55;0.40;;;;;;;15.61;58.91;100005.27;1697779;84;21117;-42
2021/05/31 16:29:01;;;;;;;0.50;0.40;;;;;;;15.58;58.90;100004.88;1697741;84;21063;-43
2021/05/31 16:31:27;;;;;;;0.90;0.42;;;;;;;15.58;59.08;100014.56;1697872;84;21106;-42
2021/05/31 16:33:54;;;;;;;1.70;0.78;;;;;;;15.56;59.75;100011.11;1697769;84;21114;-43
2021/05/31 16:36:21;;;;;;;7.35;0.60;;;;;;;15.55;60.59;100015.52;1697817;84;21108;-37
2021/05/31 16:38:48;;;;;;;2.08;0.65;;;;;;;15.52;60.54;100005.03;1697693;84;21732;-37
2021/05/31 16:41:15;;;;;;;0.98;0.40;;;;;;;15.47;60.14;100010.86;1697901;84;21030;-42
2021/05/31 16:43:43;;;;;;;2.42;0.30;;;;;;;15.40;60.31;100002.70;1697867;84;21668;-38
2021/05/31 16:46:10;;;;;;;0.68;0.50;;;;;;;15.36;60.45;100003.21;1698047;84;21050;-37
2021/05/31 16:48:37;;;;;;;1.60;0.80;;;;;;;15.32;60.41;100002.03;1697905;84;21122;-38
2021/05/31 16:51:08;;;;;;;1.40;0.42;;;;;;;15.29;60.85;99991.55;1697954;84;21070;-43
2021/05/31 16:53:35;;;;;;;1.07;0.85;;;;;;;15.26;60.79;99998.23;1697844;84;21676;-37
2021/05/31 16:56:03;;;;;;;1.47;0.40;;;;;;;15.23;61.11;99991.70;1697944;84;21074;-38
2021/05/31 16:58:30;;;;;;;1.02;0.70;;;;;;;15.22;60.59;99989.97;1697850;84;21122;-37
2021/05/31 17:00:57;;;;;;;2.17;0.70;;;;;;;15.20;60.82;99989.15;1697879;84;21102;-37
2021/05/31 17:03:23;;;;;;;1.40;0.50;;;;;;;15.17;60.76;99988.75;1697828;84;21547;-36
2021/05/31 17:05:50;;;;;;;2.05;0.50;;;;;;;15.13;60.24;99991.03;1697904;84;21074;-37
2021/05/31 17:08:19;;;;;;;2.20;0.50;;;;;;;15.06;60.22;99994.72;1697790;83;21118;-43
2021/05/31 17:21:11;;;;;;;2.50;0.70;;;;;;;14.81;61.38;99987.38;1698015;84;21071;-42
2021/05/31 17:23:37;;;;;;;0.65;0.37;;;;;;;14.77;61.78;99991.42;1697878;83;21103;-37
2021/05/31 17:26:04;;;;;;;1.72;0.60;;;;;;;14.72;61.65;99988.02;1697977;84;21078;-37
2021/05/31 17:28:31;;;;;;;1.35;0.30;;;;;;;14.67;61.91;99983.30;1697775;83;21122;-38
2021/05/31 17:33:33;;;;;;;1.12;0.55;;;;;;;14.64;62.42;99978.53;1697696;83;21668;-36
